Airport Name : Araxos

Other Name : Araxos

ICAO : LGRX

IATA : GPA

FAA :

Latitude : 38.151111

Longitude : 21.425556

Country : Greece

Local Date and Time : 18 Jul 2024 20:18

 

TAF (Terminal Aerodrome Forecast)

TAF LGRX 181700Z 1818/1903 VRB03KT 9999 FEW025

 

METAR (METeorological Aerodrome Report)

LGRX 181650Z 27004KT CAVOK 34/18 Q1010 RMK FEW180 BLU

LGRX 181620Z 28006KT 9999 FEW025 35/16 Q1009

LGRX 181550Z 28006KT 9999 FEW025 37/13 Q1009

LGRX 181520Z 27006KT 9999 FEW025 38/13 Q1009

LGRX 181450Z 27006KT 9999 FEW025 39/14 Q1010

LGRX 181420Z 27006KT 9999 FEW025 39/15 Q1010

LGRX 181350Z 27006KT 9999 FEW025 40/14 Q1010

LGRX 181320Z 28006KT 9999 FEW025 40/14 Q1010